Time,TemperatureF,DewpointF,PressureIn,WindDirection,WindDirectionDegrees,WindSpeedMPH,WindSpeedGustMPH,Humidity,HourlyPrecipIn,Conditions,Clouds,dailyrainin,SoftwareType,DateUTC
2013-05-11 00:11:00,52.5,48.0,30.14,East,79,2.0,7.0,84,0.00,,,0.00,weatherlink.com 1.10,2013-05-11 07:11:00,
2013-05-11 00:26:00,52.5,48.0,30.14,East,79,2.0,7.0,84,0.00,,,0.00,weatherlink.com 1.10,2013-05-11 07:26:00,
2013-05-11 00:41:00,52.1,48.0,30.15,East,79,0.0,6.0,86,0.00,,,0.00,weatherlink.com 1.10,2013-05-11 07:41:00,
2013-05-11 00:56:00,51.8,48.0,30.15,East,79,6.0,6.0,86,0.00,,,0.00,weatherlink.com 1.10,2013-05-11 07:56:00,
2013-05-11 01:11:00,51.5,48.0,30.15,East,79,6.0,9.0,86,0.00,,,0.00,weatherlink.com 1.10,2013-05-11 08:11:00,
2013-05-11 01:26:00,51.2,48.0,30.14,East,79,9.0,9.0,87,0.00,,,0.00,weatherlink.com 1.10,2013-05-11 08:26:00,
2013-05-11 01:56:00,50.8,47.0,30.15,East,79,5.0,10.0,88,0.00,,,0.00,weatherlink.com 1.10,2013-05-11 08:56:00,
2013-05-11 02:11:00,51.3,47.0,30.15,East,79,8.0,10.0,86,0.00,,,0.00,weatherlink.com 1.10,2013-05-11 09:11:00,
2013-05-11 02:26:00,51.1,47.0,30.15,East,81,6.0,10.0,87,0.00,,,0.00,weatherlink.com 1.10,2013-05-11 09:26:00,
2013-05-11 02:41:00,50.8,47.0,30.14,ENE,77,6.0,10.0,88,0.00,,,0.00,weatherlink.com 1.10,2013-05-11 09:41:00,
2013-05-11 02:56:00,50.5,47.0,30.14,East,81,9.0,10.0,88,0.00,,,0.00,weatherlink.com 1.10,2013-05-11 09:56:00,
2013-05-11 03:11:00,50.8,47.0,30.14,ENE,78,3.0,9.0,88,0.00,,,0.00,weatherlink.com 1.10,2013-05-11 10:11:00,
2013-05-11 03:26:00,50.8,47.0,30.13,East,80,5.0,8.0,88,0.00,,,0.00,weatherlink.com 1.10,2013-05-11 10:26:00,
2013-05-11 03:41:00,50.5,47.0,30.13,East,87,4.0,8.0,89,0.00,,,0.00,weatherlink.com 1.10,2013-05-11 10:41:00,
2013-05-11 03:56:00,50.5,47.0,30.12,East,93,4.0,9.0,89,0.00,,,0.00,weatherlink.com 1.10,2013-05-11 10:56:00,
2013-05-11 04:11:00,50.6,48.0,30.12,East,80,2.0,8.0,89,0.00,,,0.00,weatherlink.com 1.10,2013-05-11 11:11:00,
2013-05-11 04:26:00,50.7,47.0,30.13,NE,38,0.0,9.0,88,0.00,,,0.00,weatherlink.com 1.10,2013-05-11 11:26:00,
2013-05-11 04:42:00,50.8,47.0,30.14,NW,304,1.0,5.0,88,0.00,,,0.00,weatherlink.com 1.10,2013-05-11 11:42:00,
2013-05-11 04:56:00,50.7,47.0,30.13,SE,142,0.0,4.0,88,0.00,,,0.00,weatherlink.com 1.10,2013-05-11 11:56:00,
2013-05-11 05:11:00,50.6,47.0,30.12,ENE,70,6.0,6.0,88,0.00,,,0.00,weatherlink.com 1.10,2013-05-11 12:11:00,
2013-05-11 05:26:00,50.5,47.0,30.13,ESE,106,0.0,4.0,89,0.00,,,0.00,weatherlink.com 1.10,2013-05-11 12:26:00,
2013-05-11 05:41:00,50.3,48.0,30.12,ENE,77,2.0,6.0,90,0.00,,,0.00,weatherlink.com 1.10,2013-05-11 12:41:00,
2013-05-11 05:56:00,50.1,48.0,30.12,ENE,65,3.0,6.0,91,0.00,,,0.00,weatherlink.com 1.10,2013-05-11 12:56:00,
2013-05-11 06:11:00,50.0,48.0,30.12,NE,38,0.0,6.0,91,0.00,,,0.00,weatherlink.com 1.10,2013-05-11 13:11:00,
2013-05-11 06:26:00,50.0,47.0,30.12,East,81,5.0,7.0,90,0.00,,,0.00,weatherlink.com 1.10,2013-05-11 13:26:00,
2013-05-11 06:41:00,50.2,47.0,30.13,ENE,71,2.0,6.0,90,0.00,,,0.00,weatherlink.com 1.10,2013-05-11 13:41:00,
2013-05-11 06:56:00,50.4,48.0,30.13,ENE,72,0.0,6.0,90,0.00,,,0.00,weatherlink.com 1.10,2013-05-11 13:56:00,
2013-05-11 07:11:00,50.6,47.0,30.13,East,92,2.0,4.0,88,0.00,,,0.00,weatherlink.com 1.10,2013-05-11 14:11:00,
2013-05-11 07:26:00,50.9,48.0,30.13,ENE,77,2.0,7.0,88,0.00,,,0.00,weatherlink.com 1.10,2013-05-11 14:26:00,
2013-05-11 07:41:00,51.3,48.0,30.13,East,81,2.0,5.0,87,0.00,,,0.00,weatherlink.com 1.10,2013-05-11 14:41:00,
2013-05-11 07:56:00,51.9,47.0,30.13,East,79,2.0,7.0,84,0.00,,,0.00,weatherlink.com 1.10,2013-05-11 14:56:00,
2013-05-11 08:11:00,52.6,47.0,30.13,North,356,4.0,5.0,80,0.00,,,0.00,weatherlink.com 1.10,2013-05-11 15:11:00,
2013-05-11 08:26:00,53.0,47.0,30.14,South,170,0.0,4.0,80,0.00,,,0.00,weatherlink.com 1.10,2013-05-11 15:26:00,
2013-05-11 08:41:00,53.3,48.0,30.14,NE,56,1.0,3.0,81,0.00,,,0.00,weatherlink.com 1.10,2013-05-11 15:41:00,
2013-05-11 08:56:00,54.0,48.0,30.14,ENE,74,1.0,5.0,81,0.00,,,0.00,weatherlink.com 1.10,2013-05-11 15:56:00,
2013-05-11 09:11:00,54.3,49.0,30.13,ENE,58,3.0,6.0,81,0.00,,,0.00,weatherlink.com 1.10,2013-05-11 16:11:00,
2013-05-11 09:26:00,55.1,49.0,30.13,ENE,71,1.0,5.0,81,0.00,,,0.00,weatherlink.com 1.10,2013-05-11 16:26:00,
2013-05-11 09:41:00,55.5,49.0,30.13,ENE,73,2.0,5.0,80,0.00,,,0.00,weatherlink.com 1.10,2013-05-11 16:41:00,
2013-05-11 09:56:00,56.0,50.0,30.13,ENE,61,1.0,5.0,80,0.00,,,0.00,weatherlink.com 1.10,2013-05-11 16:56:00,
2013-05-11 10:11:00,57.3,50.0,30.13,NE,55,0.0,5.0,76,0.00,,,0.00,weatherlink.com 1.10,2013-05-11 17:11:00,
2013-05-11 10:26:00,59.5,50.0,30.12,SW,231,2.0,3.0,71,0.00,,,0.00,weatherlink.com 1.10,2013-05-11 17:26:00,
2013-05-11 10:41:00,60.7,50.0,30.12,ESE,110,2.0,2.0,67,0.00,,,0.00,weatherlink.com 1.10,2013-05-11 17:41:00,
2013-05-11 10:56:00,61.5,49.0,30.13,East,86,1.0,4.0,63,0.00,,,0.00,weatherlink.com 1.10,2013-05-11 17:56:00,
2013-05-11 11:11:00,62.0,50.0,30.12,WNW,292,0.0,2.0,64,0.00,,,0.00,weatherlink.com 1.10,2013-05-11 18:11:00,
2013-05-11 11:26:00,62.8,50.0,30.11,WNW,292,0.0,1.0,63,0.00,,,0.00,weatherlink.com 1.10,2013-05-11 18:26:00,
2013-05-11 11:41:00,63.2,51.0,30.11,SW,217,0.0,2.0,65,0.00,,,0.00,weatherlink.com 1.10,2013-05-11 18:41:00,
2013-05-11 11:56:00,63.1,50.0,30.11,SSW,210,0.0,2.0,62,0.00,,,0.00,weatherlink.com 1.10,2013-05-11 18:56:00,
2013-05-11 12:11:00,61.8,50.0,30.11,WSW,243,0.0,2.0,66,0.00,,,0.00,weatherlink.com 1.10,2013-05-11 19:11:00,
2013-05-11 12:27:00,60.3,50.0,30.10,WSW,243,0.0,1.0,70,0.00,,,0.00,weatherlink.com 1.10,2013-05-11 19:27:00,
2013-05-11 12:42:00,59.6,50.0,30.09,WSW,243,0.0,2.0,71,0.00,,,0.00,weatherlink.com 1.10,2013-05-11 19:42:00,
2013-05-11 12:57:00,59.9,50.0,30.09,WSW,243,0.0,2.0,69,0.00,,,0.00,weatherlink.com 1.10,2013-05-11 19:57:00,
2013-05-11 13:12:00,60.3,50.0,30.09,WSW,254,0.0,3.0,69,0.00,,,0.00,weatherlink.com 1.10,2013-05-11 20:12:00,
2013-05-11 13:27:00,60.2,51.0,30.09,WSW,254,0.0,1.0,71,0.00,,,0.00,weatherlink.com 1.10,2013-05-11 20:27:00,
2013-05-11 13:42:00,61.2,51.0,30.08,West,264,1.0,4.0,69,0.00,,,0.00,weatherlink.com 1.10,2013-05-11 20:42:00,
2013-05-11 13:57:00,63.1,51.0,30.08,West,279,2.0,4.0,66,0.00,,,0.00,weatherlink.com 1.10,2013-05-11 20:57:00,
2013-05-11 14:12:00,62.6,50.0,30.07,West,279,1.0,3.0,64,0.00,,,0.00,weatherlink.com 1.10,2013-05-11 21:12:00,
2013-05-11 14:27:00,61.4,50.0,30.07,West,279,0.0,2.0,67,0.00,,,0.00,weatherlink.com 1.10,2013-05-11 21:27:00,
2013-05-11 14:42:00,61.3,51.0,30.07,West,279,0.0,2.0,68,0.00,,,0.00,weatherlink.com 1.10,2013-05-11 21:42:00,
2013-05-11 14:57:00,62.3,51.0,30.07,West,279,2.0,3.0,67,0.00,,,0.00,weatherlink.com 1.10,2013-05-11 21:57:00,
2013-05-11 15:12:00,62.5,50.0,30.06,West,279,0.0,1.0,65,0.00,,,0.00,weatherlink.com 1.10,2013-05-11 22:12:00,
2013-05-11 15:27:00,62.6,50.0,30.06,West,279,0.0,1.0,64,0.00,,,0.00,weatherlink.com 1.10,2013-05-11 22:27:00,
2013-05-11 15:42:00,63.0,51.0,30.05,WNW,282,1.0,2.0,65,0.00,,,0.00,weatherlink.com 1.10,2013-05-11 22:42:00,
2013-05-11 15:57:00,64.2,52.0,30.05,South,176,0.0,3.0,65,0.00,,,0.00,weatherlink.com 1.10,2013-05-11 22:57:00,
2013-05-11 16:12:00,64.3,51.0,30.05,SSE,155,3.0,6.0,63,0.00,,,0.00,weatherlink.com 1.10,2013-05-11 23:12:00,
2013-05-11 16:27:00,63.6,51.0,30.04,West,278,0.0,4.0,64,0.00,,,0.00,weatherlink.com 1.10,2013-05-11 23:27:00,
2013-05-11 16:42:00,63.0,52.0,30.05,West,278,0.0,1.0,67,0.00,,,0.00,weatherlink.com 1.10,2013-05-11 23:42:00,
2013-05-11 16:57:00,61.9,52.0,30.05,West,278,0.0,1.0,69,0.00,,,0.00,weatherlink.com 1.10,2013-05-11 23:57:00,
2013-05-11 17:12:00,62.1,53.0,30.05,West,278,0.0,1.0,71,0.00,,,0.00,weatherlink.com 1.10,2013-05-12 00:12:00,
2013-05-11 17:27:00,62.9,54.0,30.04,West,278,0.0,0.0,72,0.00,,,0.00,weatherlink.com 1.10,2013-05-12 00:27:00,
2013-05-11 17:42:00,63.3,53.0,30.04,West,278,0.0,0.0,70,0.00,,,0.00,weatherlink.com 1.10,2013-05-12 00:42:00,
2013-05-11 17:57:00,62.2,51.0,30.03,West,278,0.0,2.0,68,0.00,,,0.00,weatherlink.com 1.10,2013-05-12 00:57:00,
2013-05-11 18:12:00,60.1,53.0,30.00,East,84,2.0,6.0,76,0.00,,,0.00,weatherlink.com 1.10,2013-05-12 01:12:00,
2013-05-11 18:27:00,60.7,54.0,30.00,East,84,1.0,2.0,79,0.00,,,0.00,weatherlink.com 1.10,2013-05-12 01:27:00,
2013-05-11 18:42:00,61.3,54.0,30.00,East,84,0.0,1.0,77,0.00,,,0.00,weatherlink.com 1.10,2013-05-12 01:42:00,
2013-05-11 18:57:00,61.6,54.0,30.01,East,84,0.0,1.0,75,0.00,,,0.00,weatherlink.com 1.10,2013-05-12 01:57:00,
2013-05-11 19:12:00,61.3,53.0,30.01,East,101,0.0,2.0,73,0.00,,,0.00,weatherlink.com 1.10,2013-05-12 02:12:00,
2013-05-11 19:27:00,60.8,52.0,30.00,East,101,0.0,1.0,72,0.00,,,0.00,weatherlink.com 1.10,2013-05-12 02:27:00,
2013-05-11 19:42:00,60.1,52.0,30.00,East,101,0.0,1.0,75,0.00,,,0.00,weatherlink.com 1.10,2013-05-12 02:42:00,
2013-05-11 19:57:00,59.7,52.0,30.00,East,101,0.0,0.0,76,0.00,,,0.00,weatherlink.com 1.10,2013-05-12 02:57:00,
2013-05-11 20:12:00,58.6,51.0,30.01,WNW,291,0.0,1.0,75,0.00,,,0.00,weatherlink.com 1.10,2013-05-12 03:12:00,
2013-05-11 20:27:00,56.8,50.0,30.01,WNW,291,0.0,2.0,79,0.00,,,0.00,weatherlink.com 1.10,2013-05-12 03:27:00,
2013-05-11 20:42:00,55.9,50.0,30.01,WNW,291,1.0,2.0,79,0.00,,,0.00,weatherlink.com 1.10,2013-05-12 03:42:00,
2013-05-11 20:57:00,55.5,49.0,30.03,WNW,291,0.0,1.0,79,0.00,,,0.00,weatherlink.com 1.10,2013-05-12 03:57:00,
2013-05-11 21:12:00,55.2,50.0,30.04,WNW,294,1.0,4.0,83,0.00,,,0.00,weatherlink.com 1.10,2013-05-12 04:12:00,
2013-05-11 21:27:00,55.1,51.0,30.04,WNW,294,0.0,4.0,87,0.00,,,0.00,weatherlink.com 1.10,2013-05-12 04:27:00,
2013-05-11 21:42:00,55.0,53.0,30.02,WNW,294,2.0,2.0,91,0.00,,,0.00,weatherlink.com 1.10,2013-05-12 04:42:00,
2013-05-11 21:57:00,54.7,53.0,30.01,ENE,59,4.0,5.0,94,0.00,,,0.00,weatherlink.com 1.10,2013-05-12 04:57:00,
2013-05-11 22:12:00,54.7,53.0,30.01,ENE,67,1.0,4.0,95,0.00,,,0.00,weatherlink.com 1.10,2013-05-12 05:12:00,
2013-05-11 22:27:00,54.8,54.0,30.01,ENE,67,0.0,1.0,96,0.00,,,0.00,weatherlink.com 1.10,2013-05-12 05:27:00,
2013-05-11 22:42:00,54.7,54.0,30.01,ENE,67,0.0,1.0,96,0.00,,,0.00,weatherlink.com 1.10,2013-05-12 05:42:00,
2013-05-11 22:57:00,54.8,54.0,30.01,ENE,67,0.0,0.0,96,0.00,,,0.00,weatherlink.com 1.10,2013-05-12 05:57:00,
2013-05-11 23:12:00,54.7,54.0,30.01,ENE,67,0.0,1.0,96,0.00,,,0.00,weatherlink.com 1.10,2013-05-12 06:12:00,
2013-05-11 23:27:00,54.6,54.0,30.00,ENE,67,0.0,1.0,96,0.00,,,0.00,weatherlink.com 1.10,2013-05-12 06:27:00,
2013-05-11 23:42:00,54.5,54.0,30.02,ENE,67,0.0,1.0,97,0.00,,,0.00,weatherlink.com 1.10,2013-05-12 06:42:00,
2013-05-11 23:57:00,54.5,54.0,30.02,ENE,67,0.0,0.0,97,0.00,,,0.00,weatherlink.com 1.10,2013-05-12 06:57:00,